createdAt,value
2023-01-22T00:01:42.704Z,99874.03
2023-01-22T00:04:12.417Z,99873.09
2023-01-22T00:06:40.747Z,99875.56
2023-01-22T00:09:09.575Z,99878.09
2023-01-22T00:11:38.349Z,99876.44
2023-01-22T00:14:07.357Z,99874.69
2023-01-22T00:16:36.420Z,99878.03
2023-01-22T00:19:06.700Z,99875.44
2023-01-22T00:21:35.716Z,99871.41
2023-01-22T00:24:04.619Z,99848.03
2023-01-22T00:26:33.406Z,99831.13
2023-01-22T00:29:02.067Z,99822.44
2023-01-22T00:31:30.880Z,99864.13
2023-01-22T00:33:59.682Z,99869.09
2023-01-22T00:36:30.066Z,99874.81
2023-01-22T00:38:59.064Z,99883.16
2023-01-22T00:41:27.812Z,99877.34
2023-01-22T00:43:56.661Z,99871.50
2023-01-22T00:46:26.520Z,99882.41
2023-01-22T00:48:55.366Z,99888.31
2023-01-22T00:51:24.546Z,99893.47
2023-01-22T00:53:55.088Z,99896.88
2023-01-22T00:56:24.871Z,99883.50
2023-01-22T00:58:53.664Z,99866.81
2023-01-22T01:01:22.541Z,99865.19
2023-01-22T01:03:51.288Z,99864.31
2023-01-22T01:06:22.619Z,99867.72
2023-01-22T01:08:51.650Z,99873.44
2023-01-22T01:11:24.110Z,99878.47
2023-01-22T01:13:53.880Z,99866.38
2023-01-22T01:16:25.000Z,99839.84
2023-01-22T01:18:54.220Z,99883.50
2023-01-22T01:21:22.920Z,99881.78
2023-01-22T01:23:51.996Z,99878.47
2023-01-22T01:26:22.208Z,99876.88
2023-01-22T01:28:53.461Z,99867.53
2023-01-22T01:31:26.598Z,99876.06
2023-01-22T01:33:59.338Z,99885.22
2023-01-22T01:36:47.531Z,99885.97
2023-01-22T01:39:18.231Z,99873.31
2023-01-22T01:41:50.593Z,99874.28
2023-01-22T01:44:22.012Z,99878.56
2023-01-22T01:46:56.006Z,99875.38
2023-01-22T01:49:31.267Z,99871.25
2023-01-22T01:52:03.022Z,99863.69
2023-01-22T01:54:33.333Z,99860.34
2023-01-22T01:57:10.264Z,99867.13
2023-01-22T01:59:40.668Z,99867.00
2023-01-22T02:02:09.471Z,99854.34
2023-01-22T02:04:38.149Z,99861.13
2023-01-22T02:07:07.555Z,99863.69
2023-01-22T02:09:36.744Z,99865.38
2023-01-22T02:12:07.761Z,99869.59
2023-01-22T02:14:40.900Z,99861.88
2023-01-22T02:17:12.201Z,99851.91
2023-01-22T02:19:41.423Z,99848.59
2023-01-22T02:22:15.300Z,99841.03
2023-01-22T02:24:44.148Z,99843.56
2023-01-22T02:27:13.808Z,99847.84
2023-01-22T02:29:42.929Z,99852.81
2023-01-22T02:32:13.159Z,99849.44
2023-01-22T02:34:41.990Z,99841.06
2023-01-22T02:37:13.281Z,99842.91
2023-01-22T02:39:42.343Z,99850.50
2023-01-22T02:42:11.158Z,99846.41
2023-01-22T02:44:42.727Z,99843.13
2023-01-22T02:47:11.502Z,99843.97
2023-01-22T02:49:40.205Z,99834.78
2023-01-22T02:52:09.109Z,99846.53
2023-01-22T02:54:39.305Z,99838.19
2023-01-22T02:57:08.159Z,99841.56
2023-01-22T02:59:36.961Z,99840.75
2023-01-22T03:02:05.921Z,99834.78
2023-01-22T03:04:34.579Z,99833.91
2023-01-22T03:07:05.518Z,99834.78
2023-01-22T03:09:34.276Z,99828.78
2023-01-22T03:12:06.150Z,99829.63
2023-01-22T03:14:47.751Z,99828.75
2023-01-22T03:17:27.707Z,99832.09
2023-01-22T03:20:06.561Z,99834.63
2023-01-22T03:22:35.381Z,99832.94
2023-01-22T03:25:04.210Z,99832.19
2023-01-22T03:27:35.591Z,99838.94
2023-01-22T03:30:05.047Z,99837.31
2023-01-22T03:32:36.592Z,99838.19
2023-01-22T03:35:05.981Z,99839.88
2023-01-22T03:37:49.928Z,99840.75
2023-01-22T03:40:19.689Z,99844.09
2023-01-22T03:42:50.034Z,99847.41
2023-01-22T03:45:18.898Z,99848.19
2023-01-22T03:47:47.651Z,99846.41
2023-01-22T03:50:25.437Z,99845.47
2023-01-22T03:52:54.317Z,99837.88
2023-01-22T03:55:23.069Z,99847.09
2023-01-22T03:57:53.423Z,99842.84
2023-01-22T04:00:22.768Z,99850.28
2023-01-22T04:02:54.049Z,99858.66
2023-01-22T04:05:27.748Z,99854.91
2023-01-22T04:07:56.669Z,99863.03
2023-01-22T04:10:29.414Z,99852.75
2023-01-22T04:12:59.775Z,99844.19
2023-01-22T04:15:29.336Z,99836.44
2023-01-22T04:17:59.873Z,99850.06
2023-01-22T04:20:39.769Z,99854.94
2023-01-22T04:23:19.919Z,99857.34
2023-01-22T04:25:50.723Z,99855.63
2023-01-22T04:28:22.301Z,99850.59
2023-01-22T04:30:57.373Z,99847.91
2023-01-22T04:33:46.835Z,99857.34
2023-01-22T04:36:23.522Z,99860.66
2023-01-22T04:38:52.364Z,99858.94
2023-01-22T04:41:21.563Z,99868.91
2023-01-22T04:43:52.269Z,99867.19
2023-01-22T04:46:24.461Z,99862.97
2023-01-22T04:48:54.543Z,99860.44
2023-01-22T04:51:23.496Z,99867.94
2023-01-22T04:53:52.425Z,99872.13
2023-01-22T04:56:21.265Z,99867.94
2023-01-22T04:58:52.609Z,99866.25
2023-01-22T05:01:22.820Z,99869.59
2023-01-22T05:03:52.079Z,99872.13
2023-01-22T05:06:22.212Z,99879.53
2023-01-22T05:08:51.102Z,99883.66
2023-01-22T05:11:19.732Z,99875.19
2023-01-22T05:13:57.379Z,99875.28
2023-01-22T05:16:26.329Z,99868.56
2023-01-22T05:18:55.120Z,99876.91
2023-01-22T05:21:23.994Z,99886.13
2023-01-22T05:23:53.281Z,99887.69
2023-01-22T05:26:22.289Z,99881.72
2023-01-22T05:28:58.510Z,99883.50
2023-01-22T05:31:40.703Z,99876.44
2023-01-22T05:34:17.407Z,99893.59
2023-01-22T05:36:46.640Z,99890.28
2023-01-22T05:39:19.237Z,99886.88
2023-01-22T05:41:48.790Z,99881.84
2023-01-22T05:44:19.061Z,99887.63
2023-01-22T05:46:53.372Z,99895.06
2023-01-22T05:49:33.141Z,99900.84
2023-01-22T05:52:01.894Z,99899.19
2023-01-22T05:54:30.771Z,99896.56
2023-01-22T05:57:01.784Z,99900.03
2023-01-22T05:59:32.613Z,99896.56
2023-01-22T06:02:05.280Z,99881.00
2023-01-22T06:04:36.425Z,99902.31
2023-01-22T06:07:13.177Z,99907.34
2023-01-22T06:09:42.129Z,99914.16
2023-01-22T06:12:11.142Z,99917.41
2023-01-22T06:14:41.392Z,99903.06
2023-01-22T06:17:10.373Z,99909.22
2023-01-22T06:19:47.482Z,99909.03
2023-01-22T06:22:20.102Z,99922.69
2023-01-22T06:24:53.753Z,99914.28
2023-01-22T06:27:25.993Z,99926.81
2023-01-22T06:30:01.490Z,99931.75
2023-01-22T06:32:30.791Z,99946.84
2023-01-22T06:35:01.773Z,99941.56
2023-01-22T06:37:31.209Z,99939.78
2023-01-22T06:40:00.900Z,99934.94
2023-01-22T06:42:42.498Z,99935.84
2023-01-22T06:45:13.426Z,99937.53
2023-01-22T06:47:48.165Z,99933.25
2023-01-22T06:50:18.074Z,99933.50
2023-01-22T06:52:47.323Z,99926.75
2023-01-22T06:55:17.974Z,99947.84
2023-01-22T06:57:47.514Z,99946.84
2023-01-22T07:00:19.533Z,99951.88
2023-01-22T07:02:48.834Z,99960.38
2023-01-22T07:05:17.585Z,99965.50
2023-01-22T07:07:47.965Z,99961.16
2023-01-22T07:10:17.875Z,99968.88
2023-01-22T07:12:46.861Z,99967.22
2023-01-22T07:15:16.605Z,99954.69
2023-01-22T07:17:51.516Z,99948.03
2023-01-22T07:20:24.043Z,99958.13
2023-01-22T07:22:53.568Z,99964.75
2023-01-22T07:25:22.471Z,99965.75
2023-01-22T07:27:51.184Z,99975.81
2023-01-22T07:30:20.773Z,99972.50
2023-01-22T07:32:51.251Z,99967.47
2023-01-22T07:35:20.940Z,99964.28
2023-01-22T07:37:53.791Z,99956.00
2023-01-22T07:40:25.065Z,99961.13
2023-01-22T07:42:54.541Z,99961.25
2023-01-22T07:45:26.754Z,99966.22
2023-01-22T07:47:59.863Z,99973.22
2023-01-22T07:50:30.908Z,99980.06
2023-01-22T07:53:00.837Z,99980.06
2023-01-22T07:55:31.521Z,99966.22
2023-01-22T07:58:01.314Z,99983.50
2023-01-22T08:00:30.066Z,99997.81
2023-01-22T08:03:00.345Z,100007.06
2023-01-22T08:05:29.433Z,100007.13
2023-01-22T08:07:58.187Z,100008.91
2023-01-22T08:10:26.954Z,100009.00
2023-01-22T08:12:55.751Z,100013.94
2023-01-22T08:15:24.975Z,100013.13
2023-01-22T08:17:53.687Z,100004.66
2023-01-22T08:20:24.420Z,100011.44
2023-01-22T08:22:58.322Z,100008.03
2023-01-22T08:25:27.387Z,99998.13
2023-01-22T08:27:56.486Z,100024.00
2023-01-22T08:30:25.276Z,100025.72
2023-01-22T08:32:55.357Z,100017.41
2023-01-22T08:35:25.605Z,100008.78
2023-01-22T08:37:54.362Z,100031.13
2023-01-22T08:40:23.105Z,100026.13
2023-01-22T08:42:54.980Z,100036.38
2023-01-22T08:45:23.924Z,100048.16
2023-01-22T08:47:58.411Z,100046.31
2023-01-22T08:50:29.873Z,100049.47
2023-01-22T08:52:59.188Z,100047.78
2023-01-22T08:55:28.239Z,100060.56
2023-01-22T08:57:57.784Z,100059.94
2023-01-22T09:00:27.894Z,100073.44
2023-01-22T09:03:00.252Z,100063.38
2023-01-22T09:05:30.527Z,100076.03
2023-01-22T09:07:59.644Z,100077.66
2023-01-22T09:10:28.425Z,100086.94
2023-01-22T09:13:00.813Z,100086.28
2023-01-22T09:15:29.780Z,100084.72
2023-01-22T09:18:00.445Z,100079.84
2023-01-22T09:20:30.681Z,100082.50
2023-01-22T09:22:59.520Z,100082.63
2023-01-22T09:25:29.653Z,100085.16
2023-01-22T09:28:00.504Z,100082.75
2023-01-22T09:30:32.656Z,100083.66
2023-01-22T09:33:01.374Z,100093.75
2023-01-22T09:35:31.570Z,100091.22
2023-01-22T09:38:01.631Z,100093.75
2023-01-22T09:40:36.086Z,100101.41
2023-01-22T09:43:07.337Z,100106.47
2023-01-22T09:45:40.129Z,100101.41
2023-01-22T09:48:17.904Z,100102.34
2023-01-22T09:50:51.128Z,100106.47
2023-01-22T09:53:22.254Z,100105.72
2023-01-22T09:55:55.824Z,100108.16
2023-01-22T09:58:27.240Z,100102.91
2023-01-22T10:01:00.405Z,100100.44
2023-01-22T10:03:35.495Z,100099.56
2023-01-22T10:06:12.772Z,100106.47
2023-01-22T10:08:53.623Z,100098.81
2023-01-22T10:11:22.534Z,100105.75
2023-01-22T10:13:52.893Z,100101.63
2023-01-22T10:16:21.999Z,100093.16
2023-01-22T10:18:56.782Z,100103.47
2023-01-22T10:21:31.225Z,100101.03
2023-01-22T10:24:00.858Z,100111.97
2023-01-22T10:26:38.803Z,100112.75
2023-01-22T10:29:10.154Z,100104.44
2023-01-22T10:31:41.333Z,100108.63
2023-01-22T10:34:15.825Z,100115.38
2023-01-22T10:36:52.784Z,100107.00
2023-01-22T10:39:22.132Z,100107.84
2023-01-22T10:41:51.205Z,100107.13
2023-01-22T10:44:23.560Z,100118.94
2023-01-22T10:46:53.870Z,100123.97
2023-01-22T10:49:24.573Z,100119.84
2023-01-22T10:51:57.104Z,100123.28
2023-01-22T10:54:32.011Z,100121.69
2023-01-22T10:57:19.150Z,100115.72
2023-01-22T10:59:50.912Z,100118.13
2023-01-22T11:02:24.520Z,100122.25
2023-01-22T11:04:54.334Z,100110.22
2023-01-22T11:07:25.625Z,100122.38
2023-01-22T11:10:01.373Z,100125.81
2023-01-22T11:12:32.494Z,100115.72
2023-01-22T11:15:07.935Z,100117.44
2023-01-22T11:17:41.557Z,100119.16
2023-01-22T11:20:21.441Z,100117.53
2023-01-22T11:23:17.134Z,100110.09
2023-01-22T11:25:50.695Z,100109.41
2023-01-22T11:28:32.891Z,100115.34
2023-01-22T11:31:18.754Z,100116.31
2023-01-22T11:34:08.627Z,100123.16
2023-01-22T11:36:44.584Z,100114.09
2023-01-22T11:39:23.441Z,100120.06
2023-01-22T11:42:04.595Z,100118.25
2023-01-22T11:44:57.078Z,100120.97
2023-01-22T11:47:44.487Z,100126.91
2023-01-22T11:50:24.228Z,100136.25
2023-01-22T11:53:01.402Z,100127.81
2023-01-22T11:55:49.252Z,100128.69
2023-01-22T11:58:27.125Z,100129.59
2023-01-22T12:01:08.022Z,100127.16
2023-01-22T12:03:59.768Z,100127.03
2023-01-22T12:06:50.327Z,100130.47
2023-01-22T12:09:25.247Z,100133.00
2023-01-22T12:12:13.817Z,100143.22
2023-01-22T12:15:00.177Z,100140.03
2023-01-22T12:17:42.843Z,100129.84
2023-01-22T12:20:31.973Z,100136.94
2023-01-22T12:23:06.838Z,100139.63
2023-01-22T12:25:42.234Z,100137.25
2023-01-22T12:28:18.591Z,100143.34
2023-01-22T12:30:58.359Z,100143.47
2023-01-22T12:33:30.861Z,100151.94
2023-01-22T12:36:04.270Z,100148.63
2023-01-22T12:38:43.175Z,100159.69
2023-01-22T12:41:26.136Z,100148.63
2023-01-22T12:43:59.099Z,100159.03
2023-01-22T12:46:34.831Z,100160.75
2023-01-22T12:49:08.527Z,100152.50
2023-01-22T12:51:41.528Z,100155.91
2023-01-22T12:54:19.648Z,100166.97
2023-01-22T12:56:49.178Z,100168.56
2023-01-22T12:59:34.792Z,100173.00
2023-01-22T13:02:07.985Z,100173.00
2023-01-22T13:04:36.768Z,100170.50
2023-01-22T13:07:08.106Z,100176.41
2023-01-22T13:09:38.714Z,100173.03
2023-01-22T13:12:11.445Z,100177.28
2023-01-22T13:14:43.732Z,100170.56
2023-01-22T13:17:21.300Z,100178.22
2023-01-22T13:19:51.975Z,100168.34
2023-01-22T13:22:23.912Z,100131.28
2023-01-22T13:24:55.397Z,100183.81
2023-01-22T13:27:27.700Z,100192.41
2023-01-22T13:30:09.848Z,100199.06
2023-01-22T13:32:38.571Z,100199.84
2023-01-22T13:35:08.268Z,100196.28
2023-01-22T13:37:39.102Z,100210.91
2023-01-22T13:40:16.591Z,100219.28
2023-01-22T13:42:47.434Z,100206.63
2023-01-22T13:45:23.287Z,100208.25
2023-01-22T13:47:57.371Z,100209.97
2023-01-22T13:50:29.071Z,100215.84
2023-01-22T13:52:59.118Z,100220.03
2023-01-22T13:55:29.715Z,100226.06
2023-01-22T13:58:02.198Z,100223.59
2023-01-22T14:00:34.396Z,100227.03
2023-01-22T14:03:03.935Z,100231.28
2023-01-22T14:05:34.682Z,100238.06
2023-01-22T14:08:08.359Z,100238.88
2023-01-22T14:10:37.453Z,100241.41
2023-01-22T14:13:08.069Z,100215.41
2023-01-22T14:15:39.735Z,100248.09
2023-01-22T14:18:11.141Z,100250.59
2023-01-22T14:20:41.644Z,100212.03
2023-01-22T14:23:10.349Z,100249.75
2023-01-22T14:25:39.920Z,100217.13
2023-01-22T14:28:08.505Z,100254.81
2023-01-22T14:30:38.831Z,100265.78
2023-01-22T14:33:08.448Z,100265.72
2023-01-22T14:35:37.242Z,100264.13
2023-01-22T14:38:06.023Z,100268.38
2023-01-22T14:40:35.136Z,100283.59
2023-01-22T14:43:04.714Z,100286.09
2023-01-22T14:45:33.588Z,100294.56
2023-01-22T14:48:04.697Z,100293.72
2023-01-22T14:50:34.219Z,100294.53
2023-01-22T14:53:02.969Z,100307.16
2023-01-22T14:55:31.696Z,100312.22
2023-01-22T14:58:00.557Z,100315.53
2023-01-22T15:00:30.823Z,100326.50
2023-01-22T15:03:00.668Z,100316.13
2023-01-22T15:05:30.854Z,100323.94
2023-01-22T15:08:01.625Z,100324.72
2023-01-22T15:10:30.602Z,100327.25
2023-01-22T15:12:59.227Z,100329.72
2023-01-22T15:15:28.927Z,100328.88
2023-01-22T15:17:58.593Z,100334.69
2023-01-22T15:20:27.116Z,100335.44
2023-01-22T15:22:57.353Z,100328.63
2023-01-22T15:25:27.675Z,100333.69
2023-01-22T15:27:56.372Z,100329.44
2023-01-22T15:30:25.298Z,100331.97
2023-01-22T15:32:54.287Z,100337.91
2023-01-22T15:35:22.924Z,100336.16
2023-01-22T15:37:51.796Z,100344.59
2023-01-22T15:40:22.201Z,100342.06
2023-01-22T15:42:51.043Z,100344.53
2023-01-22T15:45:19.797Z,100361.38
2023-01-22T15:47:49.152Z,100350.41
2023-01-22T15:50:20.753Z,100359.63
2023-01-22T15:52:54.094Z,100357.09
2023-01-22T15:55:24.284Z,100362.16
2023-01-22T15:57:52.976Z,100368.84
2023-01-22T16:00:22.820Z,100373.88
2023-01-22T16:02:51.638Z,100380.63
2023-01-22T16:05:21.594Z,100378.91
2023-01-22T16:07:52.567Z,100389.81
2023-01-22T16:10:23.624Z,100392.31
2023-01-22T16:12:52.326Z,100398.19
2023-01-22T16:15:21.049Z,100387.19
2023-01-22T16:17:49.732Z,100387.19
2023-01-22T16:20:20.109Z,100388.88
2023-01-22T16:22:50.001Z,100400.59
2023-01-22T16:25:18.831Z,100404.78
2023-01-22T16:27:49.088Z,100410.69
2023-01-22T16:30:18.408Z,100415.75
2023-01-22T16:32:47.261Z,100414.00
2023-01-22T16:35:18.644Z,100422.41
2023-01-22T16:37:47.467Z,100428.31
2023-01-22T16:40:18.166Z,100432.50
2023-01-22T16:43:03.231Z,100436.69
2023-01-22T16:45:32.109Z,100435.81
2023-01-22T16:48:00.722Z,100437.44
2023-01-22T16:50:29.769Z,100443.25
2023-01-22T16:52:58.735Z,100447.41
2023-01-22T16:55:28.237Z,100457.50
2023-01-22T16:58:00.449Z,100454.06
2023-01-22T17:00:29.260Z,100450.75
2023-01-22T17:02:59.789Z,100453.28
2023-01-22T17:05:28.596Z,100457.41
2023-01-22T17:07:57.325Z,100466.63
2023-01-22T17:10:26.157Z,100464.84
2023-01-22T17:12:54.877Z,100462.19
2023-01-22T17:15:25.208Z,100461.31
2023-01-22T17:17:54.027Z,100469.63
2023-01-22T17:20:22.907Z,100477.94
2023-01-22T17:22:51.792Z,100478.69
2023-01-22T17:25:21.658Z,100485.25
2023-01-22T17:27:50.460Z,100483.50
2023-01-22T17:30:19.630Z,100485.09
2023-01-22T17:32:50.733Z,100486.72
2023-01-22T17:35:20.030Z,100487.44
2023-01-22T17:37:48.779Z,100491.75
2023-01-22T17:40:17.651Z,100475.56
2023-01-22T17:42:46.309Z,100484.06
2023-01-22T17:45:15.137Z,100484.00
2023-01-22T17:47:45.731Z,100481.41
2023-01-22T17:50:16.442Z,100474.53
2023-01-22T17:52:45.310Z,100481.94
2023-01-22T17:55:14.051Z,100487.69
2023-01-22T17:57:43.221Z,100490.75
2023-01-22T18:00:13.048Z,100495.53
2023-01-22T18:02:42.018Z,100500.19
2023-01-22T18:05:11.330Z,100502.56
2023-01-22T18:07:41.913Z,100501.47
2023-01-22T18:10:13.929Z,100507.91
2023-01-22T18:12:44.543Z,100518.38
2023-01-22T18:15:13.621Z,100522.22
2023-01-22T18:17:42.197Z,100518.78
2023-01-22T18:20:12.263Z,100518.63
2023-01-22T18:22:42.137Z,100520.84
2023-01-22T18:25:11.329Z,100520.34
2023-01-22T18:27:39.965Z,100526.13
2023-01-22T18:30:12.217Z,100529.22
2023-01-22T18:32:40.938Z,100533.25
2023-01-22T18:35:10.783Z,100538.88
2023-01-22T18:37:41.713Z,100542.97
2023-01-22T18:40:11.717Z,100542.06
2023-01-22T18:42:40.443Z,100549.19
2023-01-22T18:45:10.527Z,100553.16
2023-01-22T18:47:39.416Z,100556.28
2023-01-22T18:50:10.295Z,100556.94
2023-01-22T18:52:39.147Z,100553.34
2023-01-22T18:55:10.354Z,100554.16
2023-01-22T18:57:43.018Z,100559.03
2023-01-22T19:00:13.977Z,100553.00
2023-01-22T19:02:43.402Z,100559.59
2023-01-22T19:05:12.157Z,100561.19
2023-01-22T19:07:40.959Z,100555.28
2023-01-22T19:10:11.550Z,100557.03
2023-01-22T19:12:40.340Z,100563.97
2023-01-22T19:15:10.641Z,100569.28
2023-01-22T19:17:39.904Z,100577.75
2023-01-22T19:20:11.653Z,100576.31
2023-01-22T19:22:40.398Z,100581.47
2023-01-22T19:25:11.665Z,100588.09
2023-01-22T19:27:40.487Z,100593.13
2023-01-22T19:30:10.819Z,100603.34
2023-01-22T19:32:39.697Z,100600.84
2023-01-22T19:35:10.181Z,100618.59
2023-01-22T19:37:38.902Z,100624.41
2023-01-22T19:40:09.157Z,100621.03
2023-01-22T19:42:42.299Z,100622.78
2023-01-22T19:45:11.404Z,100623.66
2023-01-22T19:47:40.000Z,100623.66
2023-01-22T19:50:10.349Z,100629.53
2023-01-22T19:52:39.054Z,100630.53
2023-01-22T19:55:08.278Z,100625.50
2023-01-22T19:57:38.464Z,100628.03
2023-01-22T20:00:09.479Z,100628.81
2023-01-22T20:02:38.412Z,100618.47
2023-01-22T20:05:08.042Z,100635.72
2023-01-22T20:07:36.958Z,100646.91
2023-01-22T20:10:06.435Z,100646.28
2023-01-22T20:12:35.139Z,100633.84
2023-01-22T20:15:05.699Z,100642.44
2023-01-22T20:17:34.359Z,100646.66
2023-01-22T20:20:02.946Z,100642.50
2023-01-22T20:22:31.761Z,100641.78
2023-01-22T20:25:00.841Z,100632.63
2023-01-22T20:27:29.943Z,100641.94
2023-01-22T20:29:58.659Z,100640.34
2023-01-22T20:32:30.607Z,100639.41
2023-01-22T20:34:59.585Z,100641.94
2023-01-22T20:37:28.288Z,100633.56
2023-01-22T20:39:57.500Z,100630.25
2023-01-22T20:42:28.538Z,100624.34
2023-01-22T20:44:58.649Z,100616.06
2023-01-22T20:47:28.797Z,100611.03
2023-01-22T20:49:57.446Z,100617.47
2023-01-22T20:52:26.305Z,100622.13
2023-01-22T20:55:01.689Z,100631.13
2023-01-22T20:57:31.882Z,100632.56
2023-01-22T21:00:00.631Z,100647.50
2023-01-22T21:02:31.398Z,100652.44
2023-01-22T21:05:00.329Z,100666.56
2023-01-22T21:07:29.121Z,100664.88
2023-01-22T21:09:57.850Z,100667.06
2023-01-22T21:12:27.594Z,100680.97
2023-01-22T21:14:57.324Z,100680.63
2023-01-22T21:17:25.767Z,100673.78
2023-01-22T21:19:56.329Z,100673.41
2023-01-22T21:22:25.122Z,100675.47
2023-01-22T21:24:53.903Z,100670.94
2023-01-22T21:27:22.759Z,100679.19
2023-01-22T21:29:51.999Z,100692.47
2023-01-22T21:32:20.842Z,100687.44
2023-01-22T21:34:49.652Z,100687.31
2023-01-22T21:37:20.441Z,100694.38
2023-01-22T21:39:49.454Z,100696.75
2023-01-22T21:42:28.163Z,100698.22
2023-01-22T21:45:06.679Z,100697.22
2023-01-22T21:47:35.520Z,100702.84
2023-01-22T21:50:04.178Z,100697.06
2023-01-22T21:52:34.601Z,100692.78
2023-01-22T21:55:03.431Z,100693.59
2023-01-22T21:57:32.117Z,100688.41
2023-01-22T22:00:00.928Z,100691.44
2023-01-22T22:02:29.684Z,100687.94
2023-01-22T22:05:00.190Z,100686.19
2023-01-22T22:07:29.001Z,100681.88
2023-01-22T22:09:59.488Z,100685.78
2023-01-22T22:12:31.559Z,100672.22
2023-01-22T22:15:00.328Z,100669.44
2023-01-22T22:17:29.059Z,100677.06
2023-01-22T22:19:57.764Z,100681.91
2023-01-22T22:22:26.891Z,100686.00
2023-01-22T22:24:55.741Z,100685.94
2023-01-22T22:27:27.793Z,100690.78
2023-01-22T22:29:56.911Z,100694.94
2023-01-22T22:32:25.656Z,100694.63
2023-01-22T22:34:55.440Z,100691.00
2023-01-22T22:37:24.209Z,100693.34
2023-01-22T22:39:53.049Z,100697.44
2023-01-22T22:42:21.773Z,100702.47
2023-01-22T22:44:52.043Z,100719.09
2023-01-22T22:47:20.797Z,100723.19
2023-01-22T22:49:49.518Z,100718.06
2023-01-22T22:52:18.962Z,100720.50
2023-01-22T22:54:47.811Z,100710.44
2023-01-22T22:57:16.641Z,100711.38
2023-01-22T22:59:45.333Z,100722.06
2023-01-22T23:02:15.800Z,100725.34
2023-01-22T23:04:44.686Z,100725.16
2023-01-22T23:07:13.456Z,100727.84
2023-01-22T23:09:42.283Z,100721.19
2023-01-22T23:12:10.959Z,100713.47
2023-01-22T23:14:39.753Z,100721.09
2023-01-22T23:17:08.465Z,100716.88
2023-01-22T23:19:38.919Z,100716.16
2023-01-22T23:22:08.001Z,100723.78
2023-01-22T23:24:36.862Z,100730.63
2023-01-22T23:27:05.878Z,100735.88
2023-01-22T23:29:34.692Z,100735.19
2023-01-22T23:32:03.461Z,100726.88
2023-01-22T23:34:32.287Z,100725.13
2023-01-22T23:37:02.414Z,100722.38
2023-01-22T23:39:31.187Z,100724.25
2023-01-22T23:41:59.899Z,100696.38
2023-01-22T23:44:28.722Z,100701.50
2023-01-22T23:46:57.467Z,100719.59
2023-01-22T23:49:26.272Z,100712.22
2023-01-22T23:51:55.049Z,100715.06
2023-01-22T23:54:25.310Z,100722.84
2023-01-22T23:56:54.252Z,100709.84
2023-01-22T23:59:23.708Z,100714.34
